createdAt,value
2019-01-14T00:00:50.633Z,10.90
2019-01-14T00:03:19.683Z,11.00
2019-01-14T00:05:48.521Z,10.90
2019-01-14T00:08:17.337Z,11.00
2019-01-14T00:10:46.065Z,10.90
2019-01-14T00:13:14.782Z,10.90
2019-01-14T00:15:43.689Z,10.90
2019-01-14T00:18:12.563Z,11.00
2019-01-14T00:20:41.393Z,11.00
2019-01-14T00:23:10.333Z,11.00
2019-01-14T00:25:39.149Z,11.00
2019-01-14T00:28:07.863Z,11.00
2019-01-14T00:30:36.669Z,11.00
2019-01-14T00:33:05.541Z,11.00
2019-01-14T00:35:34.416Z,11.00
2019-01-14T00:38:03.229Z,11.00
2019-01-14T00:40:32.082Z,11.00
2019-01-14T00:43:01.090Z,11.00
2019-01-14T00:45:29.839Z,11.00
2019-01-14T00:47:58.557Z,11.00
2019-01-14T00:50:27.361Z,11.00
2019-01-14T00:52:56.217Z,10.90
2019-01-14T00:55:24.938Z,11.00
2019-01-14T00:57:53.752Z,10.90
2019-01-14T01:00:24.687Z,10.90
2019-01-14T01:02:53.753Z,10.90
2019-01-14T01:05:22.506Z,10.90
2019-01-14T01:07:51.851Z,10.90
2019-01-14T01:10:20.801Z,10.90
2019-01-14T01:12:50.251Z,10.90
2019-01-14T01:15:19.068Z,10.80
2019-01-14T01:17:47.865Z,10.80
2019-01-14T01:20:19.861Z,10.80
2019-01-14T01:22:48.794Z,10.70
2019-01-14T01:25:17.780Z,10.70
2019-01-14T01:27:46.625Z,10.70
2019-01-14T01:30:19.273Z,10.70
2019-01-14T01:32:48.701Z,10.60
2019-01-14T01:35:17.942Z,10.60
2019-01-14T01:37:46.848Z,10.60
2019-01-14T01:40:18.081Z,10.60
2019-01-14T01:42:46.962Z,10.60
2019-01-14T01:45:16.205Z,10.50
2019-01-14T01:47:45.044Z,10.50
2019-01-14T01:50:15.726Z,10.50
2019-01-14T01:52:44.721Z,10.40
2019-01-14T01:55:13.907Z,10.40
2019-01-14T01:57:42.629Z,10.40
2019-01-14T02:00:17.341Z,10.40
2019-01-14T02:02:46.243Z,10.40
2019-01-14T02:05:16.358Z,10.30
2019-01-14T02:07:45.246Z,10.30
2019-01-14T02:10:16.802Z,10.30
2019-01-14T02:12:45.518Z,10.20
2019-01-14T02:15:15.495Z,10.20
2019-01-14T02:17:44.437Z,10.20
2019-01-14T02:20:14.877Z,10.10
2019-01-14T02:22:43.759Z,10.10
2019-01-14T02:25:13.795Z,10.10
2019-01-14T02:27:42.530Z,10.00
2019-01-14T02:30:14.889Z,10.10
2019-01-14T02:32:43.589Z,10.10
2019-01-14T02:35:12.511Z,10.10
2019-01-14T02:37:41.314Z,10.10
2019-01-14T02:40:12.257Z,10.10
2019-01-14T02:42:40.958Z,10.10
2019-01-14T02:45:10.305Z,10.10
2019-01-14T02:47:39.049Z,10.10
2019-01-14T02:50:08.337Z,10.10
2019-01-14T02:52:39.785Z,10.10
2019-01-14T02:55:07.805Z,10.10
2019-01-14T02:57:36.597Z,10.00
2019-01-14T03:00:09.649Z,10.00
2019-01-14T03:02:38.473Z,10.00
2019-01-14T03:05:07.451Z,9.90
2019-01-14T03:07:36.253Z,9.90
2019-01-14T03:10:06.434Z,9.90
2019-01-14T03:12:35.321Z,9.90
2019-01-14T03:15:04.949Z,9.90
2019-01-14T03:17:33.669Z,9.90
2019-01-14T03:20:02.569Z,9.90
2019-01-14T03:22:31.321Z,9.90
2019-01-14T03:25:00.046Z,9.90
2019-01-14T03:27:29.111Z,9.90
2019-01-14T03:29:57.845Z,9.90
2019-01-14T03:32:26.554Z,9.80
2019-01-14T03:34:55.294Z,9.90
2019-01-14T03:37:24.045Z,9.90
2019-01-14T03:39:52.837Z,9.90
2019-01-14T03:42:21.565Z,9.80
2019-01-14T03:44:50.301Z,9.80
2019-01-14T03:47:19.007Z,9.90
2019-01-14T03:49:47.705Z,9.80
2019-01-14T03:52:16.432Z,9.80
2019-01-14T03:54:45.153Z,9.90
2019-01-14T03:57:13.959Z,9.90
2019-01-14T03:59:42.679Z,9.90
2019-01-14T04:02:11.493Z,9.90
2019-01-14T04:04:40.281Z,9.90
2019-01-14T04:07:13.502Z,9.90
2019-01-14T04:09:39.598Z,9.80
2019-01-14T04:12:08.383Z,9.80
2019-01-14T04:14:37.156Z,9.80
2019-01-14T04:17:05.873Z,9.80
2019-01-14T04:19:34.613Z,9.80
2019-01-14T04:22:03.480Z,9.80
2019-01-14T04:24:32.204Z,9.80
2019-01-14T04:27:00.929Z,9.80
2019-01-14T04:29:29.674Z,9.70
2019-01-14T04:31:58.593Z,9.70
2019-01-14T04:34:27.311Z,9.70
2019-01-14T04:36:56.116Z,9.70
2019-01-14T04:39:25.203Z,9.60
2019-01-14T04:41:53.913Z,9.60
2019-01-14T04:44:22.647Z,9.60
2019-01-14T04:46:51.380Z,9.60
2019-01-14T04:49:20.115Z,9.60
2019-01-14T04:51:48.857Z,9.60
2019-01-14T04:54:17.603Z,9.60
2019-01-14T04:56:46.324Z,9.60
2019-01-14T04:59:15.060Z,9.60
2019-01-14T05:01:43.909Z,9.60
2019-01-14T05:04:12.653Z,9.60
2019-01-14T05:06:41.386Z,9.60
2019-01-14T05:09:10.246Z,9.60
2019-01-14T05:11:39.104Z,9.60
2019-01-14T05:14:07.876Z,9.70
2019-01-14T05:16:36.665Z,9.60
2019-01-14T05:19:05.473Z,9.70
2019-01-14T05:21:34.329Z,9.70
2019-01-14T05:24:03.166Z,9.70
2019-01-14T05:26:31.866Z,9.70
2019-01-14T05:29:00.625Z,9.70
2019-01-14T05:31:29.325Z,9.70
2019-01-14T05:33:58.060Z,9.70
2019-01-14T05:36:26.845Z,9.70
2019-01-14T05:38:55.667Z,9.70
2019-01-14T05:41:24.349Z,9.80
2019-01-14T05:43:53.058Z,9.70
2019-01-14T05:46:21.793Z,9.70
2019-01-14T05:48:50.571Z,9.70
2019-01-14T05:51:19.321Z,9.70
2019-01-14T05:53:48.053Z,9.70
2019-01-14T05:56:16.781Z,9.70
2019-01-14T05:58:45.521Z,9.70
2019-01-14T06:01:14.347Z,9.70
2019-01-14T06:03:43.066Z,9.70
2019-01-14T06:06:11.814Z,9.70
2019-01-14T06:08:40.597Z,9.70
2019-01-14T06:11:09.365Z,9.70
2019-01-14T06:13:38.194Z,9.60
2019-01-14T06:16:07.009Z,9.60
2019-01-14T06:18:35.977Z,9.60
2019-01-14T06:21:04.767Z,9.60
2019-01-14T06:23:33.645Z,9.60
2019-01-14T06:26:03.381Z,9.60
2019-01-14T06:28:32.133Z,9.60
2019-01-14T06:31:00.909Z,9.60
2019-01-14T06:33:29.620Z,9.60
2019-01-14T06:35:59.218Z,9.60
2019-01-14T06:38:28.029Z,9.50
2019-01-14T06:40:56.770Z,9.50
2019-01-14T06:43:25.537Z,9.50
2019-01-14T06:45:54.236Z,9.50
2019-01-14T06:48:23.047Z,9.50
2019-01-14T06:50:51.889Z,9.50
2019-01-14T06:53:20.604Z,9.50
2019-01-14T06:55:49.365Z,9.50
2019-01-14T06:58:18.169Z,9.40
2019-01-14T07:00:47.029Z,9.40
2019-01-14T07:03:15.748Z,9.40
2019-01-14T07:05:44.545Z,9.40
2019-01-14T07:08:13.383Z,9.30
2019-01-14T07:10:42.195Z,9.40
2019-01-14T07:13:11.066Z,9.40
2019-01-14T07:15:39.877Z,9.30
2019-01-14T07:18:08.666Z,9.30
2019-01-14T07:20:37.557Z,9.30
2019-01-14T07:23:06.299Z,9.30
2019-01-14T07:25:35.144Z,9.30
2019-01-14T07:28:04.342Z,9.30
2019-01-14T07:30:33.041Z,9.30
2019-01-14T07:33:01.803Z,9.20
2019-01-14T07:35:30.608Z,9.20
2019-01-14T07:38:06.438Z,9.20
2019-01-14T07:40:29.748Z,9.20
2019-01-14T07:42:58.696Z,9.20
2019-01-14T07:45:27.391Z,9.20
2019-01-14T07:47:56.122Z,9.20
2019-01-14T07:50:24.958Z,9.20
2019-01-14T07:52:53.673Z,9.20
2019-01-14T07:55:22.385Z,9.10
2019-01-14T07:57:51.232Z,9.10
2019-01-14T08:00:25.089Z,9.10
2019-01-14T08:02:54.273Z,9.10
2019-01-14T08:05:23.007Z,9.00
2019-01-14T08:07:51.857Z,9.00
2019-01-14T08:10:20.726Z,8.90
2019-01-14T08:12:49.521Z,8.90
2019-01-14T08:15:20.314Z,8.90
2019-01-14T08:17:49.090Z,8.90
2019-01-14T08:20:17.965Z,8.80
2019-01-14T08:22:46.772Z,8.80
2019-01-14T08:25:15.585Z,8.80
2019-01-14T08:27:44.473Z,8.70
2019-01-14T08:30:15.801Z,8.70
2019-01-14T08:32:44.521Z,8.70
2019-01-14T08:35:13.893Z,8.60
2019-01-14T08:37:42.810Z,8.60
2019-01-14T08:40:12.585Z,8.60
2019-01-14T08:42:41.539Z,8.60
2019-01-14T08:45:10.845Z,8.60
2019-01-14T08:47:40.022Z,8.50
2019-01-14T08:50:12.157Z,8.60
2019-01-14T08:52:40.881Z,8.60
2019-01-14T08:55:09.802Z,8.60
2019-01-14T08:57:38.977Z,8.60
2019-01-14T09:00:16.562Z,8.60
2019-01-14T09:02:45.342Z,8.60
2019-01-14T09:05:14.752Z,8.60
2019-01-14T09:07:43.642Z,8.70
2019-01-14T09:10:15.481Z,8.70
2019-01-14T09:12:45.513Z,8.70
2019-01-14T09:15:15.061Z,8.60
2019-01-14T09:17:44.098Z,8.60
2019-01-14T09:20:15.697Z,8.70
2019-01-14T09:22:44.541Z,8.70
2019-01-14T09:25:13.519Z,8.70
2019-01-14T09:27:42.409Z,8.70
2019-01-14T09:30:14.793Z,8.70
2019-01-14T09:32:43.833Z,8.70
2019-01-14T09:35:12.973Z,8.70
2019-01-14T09:37:42.409Z,8.70
2019-01-14T09:40:13.489Z,8.80
2019-01-14T09:42:42.306Z,8.80
2019-01-14T09:45:11.297Z,8.80
2019-01-14T09:47:40.061Z,8.80
2019-01-14T09:50:10.783Z,8.80
2019-01-14T09:52:39.748Z,8.70
2019-01-14T09:55:10.840Z,8.70
2019-01-14T09:57:39.634Z,8.80
2019-01-14T10:00:09.513Z,8.70
2019-01-14T10:02:38.505Z,8.70
2019-01-14T10:05:08.977Z,8.70
2019-01-14T10:07:37.861Z,8.70
2019-01-14T10:10:09.693Z,8.70
2019-01-14T10:12:38.493Z,8.70
2019-01-14T10:15:10.133Z,8.80
2019-01-14T10:17:39.257Z,8.80
2019-01-14T10:20:09.065Z,8.80
2019-01-14T10:22:37.962Z,8.90
2019-01-14T10:25:07.494Z,8.90
2019-01-14T10:27:36.366Z,9.00
2019-01-14T10:30:07.585Z,9.00
2019-01-14T10:32:36.421Z,9.00
2019-01-14T10:35:05.916Z,9.00
2019-01-14T10:37:34.605Z,9.00
2019-01-14T10:40:04.305Z,9.10
2019-01-14T10:42:33.053Z,9.10
2019-01-14T10:45:01.771Z,9.10
2019-01-14T10:47:30.569Z,9.10
2019-01-14T10:49:59.365Z,9.10
2019-01-14T10:52:28.134Z,9.10
2019-01-14T10:54:56.862Z,9.20
2019-01-14T10:57:25.750Z,9.20
2019-01-14T10:59:54.471Z,9.20
2019-01-14T11:02:23.190Z,9.30
2019-01-14T11:04:51.906Z,9.30
2019-01-14T11:07:20.633Z,9.30
2019-01-14T11:09:49.444Z,9.40
2019-01-14T11:12:18.248Z,9.40
2019-01-14T11:14:47.002Z,9.40
2019-01-14T11:17:15.725Z,9.50
2019-01-14T11:19:44.474Z,9.50
2019-01-14T11:22:13.257Z,9.50
2019-01-14T11:24:51.578Z,9.60
2019-01-14T11:27:21.189Z,9.60
2019-01-14T11:29:53.537Z,9.60
2019-01-14T11:32:23.244Z,9.60
2019-01-14T11:34:52.137Z,9.60
2019-01-14T11:37:20.962Z,9.70
2019-01-14T11:39:50.142Z,9.70
2019-01-14T11:42:19.151Z,9.70
2019-01-14T11:44:47.948Z,9.70
2019-01-14T11:47:16.949Z,9.80
2019-01-14T11:49:45.718Z,9.80
2019-01-14T11:52:14.629Z,9.80
2019-01-14T11:54:43.528Z,9.80
2019-01-14T11:57:12.382Z,9.70
2019-01-14T11:59:41.150Z,9.70
2019-01-14T12:02:09.949Z,9.60
2019-01-14T12:04:38.931Z,9.60
2019-01-14T12:07:07.750Z,9.60
2019-01-14T12:09:38.990Z,9.50
2019-01-14T12:12:07.943Z,9.50
2019-01-14T12:14:39.682Z,9.50
2019-01-14T12:17:08.394Z,9.50
2019-01-14T12:19:37.122Z,9.50
2019-01-14T12:22:06.253Z,9.50
2019-01-14T12:24:35.070Z,9.50
2019-01-14T12:27:04.063Z,9.50
2019-01-14T12:29:32.881Z,9.50
2019-01-14T12:32:01.650Z,9.60
2019-01-14T12:34:33.741Z,9.60
2019-01-14T12:37:02.968Z,9.70
2019-01-14T12:39:31.934Z,9.60
2019-01-14T12:42:00.816Z,9.60
2019-01-14T12:44:29.662Z,9.60
2019-01-14T12:46:58.516Z,9.60
2019-01-14T12:49:27.335Z,9.50
2019-01-14T12:51:56.637Z,9.50
2019-01-14T12:54:29.987Z,9.50
2019-01-14T12:57:00.143Z,9.50
2019-01-14T12:59:32.599Z,9.40
2019-01-14T13:02:04.609Z,9.50
2019-01-14T13:04:36.754Z,9.40
2019-01-14T13:07:05.668Z,9.50
2019-01-14T13:09:34.645Z,9.50
2019-01-14T13:12:04.064Z,9.50
2019-01-14T13:14:32.894Z,9.50
2019-01-14T13:17:01.701Z,9.50
2019-01-14T13:19:30.900Z,9.60
2019-01-14T13:21:59.609Z,9.60
2019-01-14T13:24:28.806Z,9.60
2019-01-14T13:26:57.757Z,9.60
2019-01-14T13:29:26.590Z,9.60
2019-01-14T13:31:55.337Z,9.50
2019-01-14T13:34:24.160Z,9.50
2019-01-14T13:36:53.009Z,9.50
2019-01-14T13:39:21.766Z,9.50
2019-01-14T13:41:50.512Z,9.50
2019-01-14T13:44:19.419Z,9.50
2019-01-14T13:46:49.547Z,9.50
2019-01-14T13:49:21.468Z,9.50
2019-01-14T13:51:52.104Z,9.50
2019-01-14T13:54:20.887Z,9.50
2019-01-14T13:56:49.589Z,9.50
2019-01-14T13:59:18.693Z,9.50
2019-01-14T14:01:47.514Z,9.40
2019-01-14T14:04:16.245Z,9.40
2019-01-14T14:06:45.126Z,9.40
2019-01-14T14:09:13.923Z,9.30
2019-01-14T14:11:42.725Z,9.20
2019-01-14T14:14:11.688Z,9.20
2019-01-14T14:16:40.513Z,9.20
2019-01-14T14:19:09.687Z,9.20
2019-01-14T14:21:38.903Z,9.10
2019-01-14T14:24:07.727Z,9.10
2019-01-14T14:26:36.663Z,9.10
2019-01-14T14:29:05.829Z,9.10
2019-01-14T14:31:34.559Z,9.00
2019-01-14T14:34:16.197Z,9.00
2019-01-14T14:37:02.116Z,9.00
2019-01-14T14:39:28.291Z,9.00
2019-01-14T14:41:57.020Z,9.00
2019-01-14T14:44:25.742Z,9.00
2019-01-14T14:46:54.465Z,8.90
2019-01-14T14:49:23.217Z,8.90
2019-01-14T14:51:52.001Z,9.00
2019-01-14T14:54:20.736Z,8.90
2019-01-14T14:56:49.713Z,9.00
2019-01-14T14:59:18.445Z,9.00
2019-01-14T15:01:47.270Z,9.00
2019-01-14T15:04:15.978Z,9.00
2019-01-14T15:06:44.860Z,8.90
2019-01-14T15:09:13.661Z,8.90
2019-01-14T15:11:42.500Z,8.90
2019-01-14T15:14:11.226Z,8.90
2019-01-14T15:16:40.061Z,9.00
2019-01-14T15:19:08.903Z,9.00
2019-01-14T15:21:37.725Z,9.00
2019-01-14T15:24:06.489Z,9.00
2019-01-14T15:26:35.202Z,9.00
2019-01-14T15:29:05.634Z,9.00
2019-01-14T15:31:34.590Z,9.00
2019-01-14T15:34:03.424Z,9.00
2019-01-14T15:36:32.209Z,9.00
2019-01-14T15:39:00.937Z,8.90
2019-01-14T15:41:29.642Z,8.90
2019-01-14T15:43:59.016Z,8.90
2019-01-14T15:46:27.743Z,8.90
2019-01-14T15:48:56.477Z,8.90
2019-01-14T15:51:25.281Z,8.90
2019-01-14T15:53:53.994Z,8.90
2019-01-14T15:56:22.701Z,8.90
2019-01-14T15:58:51.429Z,8.90
2019-01-14T16:01:20.224Z,8.80
2019-01-14T16:03:48.961Z,8.80
2019-01-14T16:06:17.713Z,8.80
2019-01-14T16:08:46.449Z,8.80
2019-01-14T16:11:15.530Z,8.80
2019-01-14T16:13:44.654Z,8.80
2019-01-14T16:16:13.499Z,8.80
2019-01-14T16:18:42.290Z,8.80
2019-01-14T16:21:11.069Z,8.80
2019-01-14T16:23:39.930Z,8.80
2019-01-14T16:26:08.644Z,8.80
2019-01-14T16:28:37.544Z,8.70
2019-01-14T16:31:06.579Z,8.70
2019-01-14T16:33:35.583Z,8.70
2019-01-14T16:36:04.444Z,8.70
2019-01-14T16:38:33.393Z,8.60
2019-01-14T16:41:02.121Z,8.60
2019-01-14T16:43:30.874Z,8.60
2019-01-14T16:45:59.610Z,8.60
2019-01-14T16:48:28.408Z,8.60
2019-01-14T16:50:57.147Z,8.60
2019-01-14T16:53:25.907Z,8.60
2019-01-14T16:55:55.912Z,8.60
2019-01-14T16:58:24.722Z,8.50
2019-01-14T17:00:53.559Z,8.50
2019-01-14T17:03:22.254Z,8.50
2019-01-14T17:05:51.035Z,8.50
2019-01-14T17:08:19.945Z,8.50
2019-01-14T17:10:48.685Z,8.40
2019-01-14T17:13:17.475Z,8.40
2019-01-14T17:15:46.258Z,8.30
2019-01-14T17:18:15.137Z,8.30
2019-01-14T17:20:43.885Z,8.30
2019-01-14T17:23:12.698Z,8.30
2019-01-14T17:25:41.433Z,8.20
2019-01-14T17:28:10.235Z,8.20
2019-01-14T17:30:39.113Z,8.20
2019-01-14T17:33:07.825Z,8.10
2019-01-14T17:35:36.625Z,8.10
2019-01-14T17:38:05.365Z,8.10
2019-01-14T17:40:34.181Z,8.10
2019-01-14T17:43:02.921Z,8.10
2019-01-14T17:45:31.798Z,8.10
2019-01-14T17:48:00.597Z,8.10
2019-01-14T17:50:29.332Z,8.10
2019-01-14T17:52:58.073Z,8.10
2019-01-14T17:55:26.773Z,8.10
2019-01-14T17:57:55.486Z,8.20
2019-01-14T18:00:25.783Z,8.10
2019-01-14T18:02:54.509Z,8.20
2019-01-14T18:05:23.410Z,8.20
2019-01-14T18:07:52.441Z,8.20
2019-01-14T18:10:21.783Z,8.20
2019-01-14T18:12:50.491Z,8.10
2019-01-14T18:15:19.370Z,8.10
2019-01-14T18:17:48.126Z,8.10
2019-01-14T18:20:19.069Z,8.10
2019-01-14T18:22:48.100Z,8.10
2019-01-14T18:25:17.067Z,8.10
2019-01-14T18:27:46.017Z,8.10
2019-01-14T18:30:17.391Z,8.10
2019-01-14T18:32:46.198Z,8.00
2019-01-14T18:35:17.086Z,8.00
2019-01-14T18:37:46.310Z,8.00
2019-01-14T18:40:16.334Z,8.00
2019-01-14T18:42:45.549Z,8.00
2019-01-14T18:45:15.421Z,8.00
2019-01-14T18:47:44.354Z,8.00
2019-01-14T18:50:15.531Z,8.00
2019-01-14T18:52:44.359Z,8.00
2019-01-14T18:55:13.393Z,8.00
2019-01-14T18:57:42.374Z,7.90
2019-01-14T19:00:14.625Z,7.90
2019-01-14T19:02:43.417Z,7.90
2019-01-14T19:05:12.330Z,7.90
2019-01-14T19:07:41.914Z,7.90
2019-01-14T19:10:11.017Z,7.90
2019-01-14T19:12:39.714Z,7.90
2019-01-14T19:15:11.057Z,7.80
2019-01-14T19:17:39.961Z,7.80
2019-01-14T19:20:12.285Z,7.80
2019-01-14T19:22:41.336Z,7.80
2019-01-14T19:25:10.333Z,7.80
2019-01-14T19:27:39.049Z,7.80
2019-01-14T19:30:10.358Z,7.70
2019-01-14T19:32:39.112Z,7.70
2019-01-14T19:35:08.382Z,7.70
2019-01-14T19:37:39.854Z,7.70
2019-01-14T19:40:11.677Z,7.70
2019-01-14T19:42:40.494Z,7.60
2019-01-14T19:45:10.054Z,7.60
2019-01-14T19:47:38.989Z,7.60
2019-01-14T19:50:11.299Z,7.50
2019-01-14T19:52:40.074Z,7.50
2019-01-14T19:55:12.844Z,7.50
2019-01-14T19:57:42.092Z,7.50
2019-01-14T20:00:14.031Z,7.50
2019-01-14T20:02:47.414Z,7.50
2019-01-14T20:05:16.430Z,7.50
2019-01-14T20:07:50.429Z,7.50
2019-01-14T20:10:19.374Z,7.50
2019-01-14T20:12:48.610Z,7.50
2019-01-14T20:15:17.939Z,7.50
2019-01-14T20:17:46.886Z,7.50
2019-01-14T20:20:16.121Z,7.50
2019-01-14T20:22:45.124Z,7.50
2019-01-14T20:25:14.515Z,7.50
2019-01-14T20:28:11.891Z,7.50
2019-01-14T20:31:03.886Z,7.50
2019-01-14T20:34:48.324Z,7.40
2019-01-14T20:37:24.600Z,7.40
2019-01-14T20:40:05.713Z,7.40
2019-01-14T20:42:34.595Z,7.30
2019-01-14T20:45:03.829Z,7.30
2019-01-14T20:47:32.655Z,7.20
2019-01-14T20:50:01.341Z,7.20
2019-01-14T20:52:32.262Z,7.20
2019-01-14T20:55:01.894Z,7.10
2019-01-14T20:57:30.829Z,7.10
2019-01-14T20:59:59.573Z,7.10
2019-01-14T21:02:28.337Z,7.00
2019-01-14T21:04:57.079Z,7.00
2019-01-14T21:07:25.826Z,7.00
2019-01-14T21:09:54.569Z,6.90
2019-01-14T21:12:24.379Z,6.90
2019-01-14T21:14:53.140Z,6.80
2019-01-14T21:17:21.858Z,6.80
2019-01-14T21:19:50.645Z,6.80
2019-01-14T21:22:19.363Z,6.70
2019-01-14T21:24:48.211Z,6.70
2019-01-14T21:27:16.918Z,6.70
2019-01-14T21:29:45.709Z,6.70
2019-01-14T21:32:14.541Z,6.60
2019-01-14T21:34:43.272Z,6.60
2019-01-14T21:37:12.046Z,6.60
2019-01-14T21:39:40.841Z,6.60
2019-01-14T21:42:09.627Z,6.50
2019-01-14T21:44:38.438Z,6.50
2019-01-14T21:47:07.431Z,6.50
2019-01-14T21:49:36.298Z,6.40
2019-01-14T21:52:05.165Z,6.40
2019-01-14T21:54:33.912Z,6.40
2019-01-14T21:57:02.653Z,6.40
2019-01-14T21:59:31.389Z,6.30
2019-01-14T22:02:00.124Z,6.30
2019-01-14T22:04:29.117Z,6.30
2019-01-14T22:06:57.839Z,6.30
2019-01-14T22:09:26.580Z,6.20
2019-01-14T22:11:55.285Z,6.20
2019-01-14T22:14:24.025Z,6.20
2019-01-14T22:16:52.862Z,6.20
2019-01-14T22:19:21.638Z,6.20
2019-01-14T22:21:50.353Z,6.20
2019-01-14T22:24:19.125Z,6.20
2019-01-14T22:26:47.913Z,6.20
2019-01-14T22:29:16.853Z,6.20
2019-01-14T22:31:45.653Z,6.30
2019-01-14T22:34:14.424Z,6.30
2019-01-14T22:36:43.119Z,6.30
2019-01-14T22:39:11.978Z,6.30
2019-01-14T22:41:45.675Z,6.30
2019-01-14T22:44:11.183Z,5.80
2019-01-14T22:46:39.961Z,6.30
2019-01-14T22:49:08.667Z,6.30
2019-01-14T22:51:37.596Z,6.30
2019-01-14T22:54:06.429Z,6.30
2019-01-14T22:56:35.173Z,6.30
2019-01-14T22:59:04.081Z,6.30
2019-01-14T23:01:46.649Z,6.30
2019-01-14T23:04:15.488Z,6.30
2019-01-14T23:06:44.293Z,6.30
2019-01-14T23:09:13.149Z,6.30
2019-01-14T23:11:41.862Z,6.20
2019-01-14T23:14:10.628Z,6.20
2019-01-14T23:16:39.387Z,6.20
2019-01-14T23:19:08.221Z,6.20
2019-01-14T23:21:36.978Z,6.20
2019-01-14T23:24:06.009Z,6.20
2019-01-14T23:26:34.734Z,6.10
2019-01-14T23:29:03.509Z,6.10
2019-01-14T23:31:32.327Z,6.10
2019-01-14T23:34:01.062Z,6.10
2019-01-14T23:36:29.922Z,6.00
2019-01-14T23:38:58.665Z,6.00
2019-01-14T23:41:27.369Z,6.00
2019-01-14T23:43:56.313Z,6.00
2019-01-14T23:46:25.149Z,6.00
2019-01-14T23:48:54.064Z,6.00
2019-01-14T23:51:23.012Z,6.00
2019-01-14T23:53:51.743Z,6.00
2019-01-14T23:56:20.445Z,6.00
2019-01-14T23:58:49.154Z,5.90
